This is the latest recevied weather packets stored in our database for station/object KB3FKJ. If no packets are shown the sender has not sent any weather packets the latest 10 day(s).
| Time | Temp. | Humidity | Pressure | Rain* | Wind** | Luminosity | Snow |
|---|---|---|---|---|---|---|---|
| 1777140659 | 8.89° C | 96% | 1010.6 hPa | 3.05 mm | - | 40 W/m² | - |
| 1777140355 | 8.89° C | 96% | 1010.4 hPa | 3.05 mm | - | 34 W/m² | - |
| 1777140053 | 8.89° C | 96% | 1010.6 hPa | 3.05 mm | - | 26 W/m² | - |
| 1777139750 | 8.89° C | 96% | 1010.6 hPa | 3.05 mm | - | 19 W/m² | - |
| 1777139445 | 8.89° C | 96% | 1010.4 hPa | 3.05 mm | - | 32 W/m² | - |
| 1777139141 | 8.89° C | 96% | 1010.3 hPa | 3.56 mm | - | 29 W/m² | - |
| 1777138838 | 8.89° C | 96% | 1010.3 hPa | 3.05 mm | - | 32 W/m² | - |
| 1777138533 | 8.89° C | 96% | 1010.2 hPa | 3.05 mm | - | 42 W/m² | - |
| 1777138230 | 9.44° C | 96% | 1010.2 hPa | 3.05 mm | - | 34 W/m² | - |
| 1777137927 | 8.89° C | 96% | 1010.2 hPa | 3.05 mm | - | 36 W/m² | - |
| 1777137622 | 8.89° C | 95% | 1010.2 hPa | 3.05 mm | - | 27 W/m² | - |
| 1777137321 | 8.89° C | 95% | 1010 hPa | 3.05 mm | - | 31 W/m² | - |
| 1777137017 | 9.44° C | 95% | 1010.3 hPa | 1.78 mm | - | 26 W/m² | - |
| 1777136713 | 9.44° C | 95% | 1010 hPa | 1.27 mm | - | 32 W/m² | - |
| 1777136411 | 9.44° C | 95% | 1010.1 hPa | 0 mm | - | 35 W/m² | - |
| 1777136108 | 9.44° C | 95% | 1010 hPa | 0 mm | - | 36 W/m² | - |
| 1777135804 | 9.44° C | 95% | 1010 hPa | 0 mm | - | 45 W/m² | - |
| 1777135500 | 9.44° C | 95% | 1009.9 hPa | 0 mm | - | 42 W/m² | - |
| 1777135196 | 9.44° C | 95% | 1010.2 hPa | 1.78 mm | - | 27 W/m² | - |
| 1777134893 | 9.44° C | 95% | 1010 hPa | 1.78 mm | - | 28 W/m² | - |
| 1777134590 | 10° C | 95% | 1010.1 hPa | 0 mm | - | 31 W/m² | - |
* Rain latest hour (hover to see other rain measurements)
** Current wind speed in m/s (hover to see current wind gust speed)